Search for airport 
image banner adimage banner adimage banner ad
image banner ad

00PA - R J D

Located in Coatesville, United States

ICAO - 00PA, IATA -

Data provided by Airmate  

General information

Coordinates: N39°56'56" W75°44'49"
Elevation is 402 feet MSL.
Magnetic variation is -12° East
View others Airports in Pennsylvania

Operational data

Special qualification required
Current time UTC:
Current local time:
Weather at : KMQS - Chester County G O Carlson ( 11 km )
METAR: KMQS 091315Z AUTO 27005KT 10SM BKN095 09/03 A3011 RMK AO2
View NOTAMs / SUP AIP / TFR affecting this airport [VIEW]
Communications frequencies: [VIEW]

Runways:

Airport contact information

Address: Coatesville United States

Satellite view of 00PA